Time;durP1;ratioP1;P1;durP2;ratioP2;P2;SDS_P1;SDS_P2;PMS_P1;PMS_P2;Temp;Humidity;BMP_temperature;BMP_pressure;BME280_temperature;BME280_humidity;BME280_pressure;Samples;Min_cycle;Max_cycle;Signal;HPM_P1;HPM_P2
2023/08/18 00:02:06;;;;;;;11.70;8.13;;;;;;;;;;5102525;28;20075;-80
2023/08/18 00:04:31;;;;;;;13.90;8.80;;;;;;;;;;5104403;28;20024;-80
2023/08/18 00:06:56;;;;;;;14.30;8.20;;;;;;;;;;5102760;28;20073;-79
2023/08/18 00:09:22;;;;;;;12.60;8.13;;;;;;;;;;5104323;28;20103;-79
2023/08/18 00:11:47;;;;;;;13.27;8.52;;;;;;;;;;5084411;28;20051;-79
2023/08/18 00:14:13;;;;;;;19.80;8.40;;;;;;;;;;5102942;28;20043;-79
2023/08/18 00:16:38;;;;;;;16.58;8.73;;;;;;;;;;5101762;28;20099;-79
2023/08/18 00:19:04;;;;;;;13.73;8.63;;;;;;;;;;5094670;28;20028;-80
2023/08/18 00:21:29;;;;;;;13.23;9.02;;;;;;;;;;5093815;28;20134;-80
2023/08/18 00:23:54;;;;;;;16.38;8.40;;;;;;;;;;5093615;28;20494;-80
2023/08/18 00:26:20;;;;;;;12.90;8.57;;;;;;;;;;5091423;28;20620;-80
2023/08/18 00:28:45;;;;;;;15.68;8.60;;;;;;;;;;5090903;28;20026;-79
2023/08/18 00:31:10;;;;;;;12.57;8.93;;;;;;;;;;5090892;28;20529;-80
2023/08/18 00:33:36;;;;;;;15.10;9.30;;;;;;;;;;5090896;28;20578;-80
2023/08/18 00:36:01;;;;;;;14.45;9.30;;;;;;;;;;5090968;28;20036;-80
2023/08/18 00:38:26;;;;;;;15.55;8.75;;;;;;;;;;5089882;28;20024;-80
2023/08/18 00:40:52;;;;;;;12.10;8.15;;;;;;;;;;5072236;28;20036;-80
2023/08/18 00:43:17;;;;;;;13.38;8.85;;;;;;;;;;5090080;28;20111;-80
2023/08/18 00:45:44;;;;;;;14.40;9.00;;;;;;;;;;5080086;28;20517;-80
2023/08/18 00:48:09;;;;;;;13.02;8.77;;;;;;;;;;5090116;28;20048;-79
2023/08/18 00:50:35;;;;;;;14.35;8.75;;;;;;;;;;5090333;28;20111;-79
2023/08/18 00:53:00;;;;;;;14.80;8.98;;;;;;;;;;5089976;28;20034;-80
2023/08/18 00:55:27;;;;;;;13.32;8.75;;;;;;;;;;5090836;28;20480;-80
2023/08/18 00:57:55;;;;;;;15.10;9.10;;;;;;;;;;5090308;28;20024;-80
2023/08/18 01:00:23;;;;;;;13.35;8.77;;;;;;;;;;5089829;28;20483;-80
2023/08/18 01:02:51;;;;;;;13.15;8.45;;;;;;;;;;5089893;28;20020;-80
2023/08/18 01:05:17;;;;;;;12.30;8.45;;;;;;;;;;5086200;28;20022;-80
2023/08/18 01:07:42;;;;;;;13.63;8.65;;;;;;;;;;5090812;28;20020;-80
2023/08/18 01:10:08;;;;;;;13.27;8.55;;;;;;;;;;5089901;28;20044;-80
2023/08/18 01:13:06;;;;;;;15.55;8.88;;;;;;;;;;5089897;28;20058;-80
2023/08/18 01:15:44;;;;;;;14.55;9.05;;;;;;;;;;5087220;28;20060;-80
2023/08/18 01:18:11;;;;;;;15.88;9.63;;;;;;;;;;5089969;28;20043;-80
2023/08/18 01:20:37;;;;;;;15.27;9.07;;;;;;;;;;5089426;28;20024;-80
2023/08/18 01:23:03;;;;;;;13.10;8.77;;;;;;;;;;5070512;28;20047;-80
2023/08/18 01:25:30;;;;;;;13.43;9.13;;;;;;;;;;5089416;28;20162;-80
2023/08/18 01:27:58;;;;;;;15.88;9.60;;;;;;;;;;5089675;28;20527;-79
2023/08/18 01:30:31;;;;;;;13.93;9.00;;;;;;;;;;5070178;28;20047;-79
2023/08/18 01:33:04;;;;;;;17.20;9.77;;;;;;;;;;5089857;28;20545;-80
2023/08/18 01:35:29;;;;;;;15.93;9.27;;;;;;;;;;5089963;28;20039;-80
2023/08/18 01:37:57;;;;;;;15.32;9.27;;;;;;;;;;5088723;28;20039;-80
2023/08/18 01:40:26;;;;;;;14.60;9.57;;;;;;;;;;5089962;28;20024;-80
2023/08/18 01:42:52;;;;;;;15.25;9.30;;;;;;;;;;5072922;28;20031;-79
2023/08/18 01:45:17;;;;;;;17.10;9.70;;;;;;;;;;5089378;28;20403;-79
2023/08/18 01:47:43;;;;;;;14.38;9.60;;;;;;;;;;5089086;28;20052;-79
2023/08/18 01:50:09;;;;;;;17.15;10.10;;;;;;;;;;5089665;28;20034;-79
2023/08/18 01:52:34;;;;;;;15.70;9.93;;;;;;;;;;5088747;28;20618;-80
2023/08/18 01:55:00;;;;;;;14.88;9.65;;;;;;;;;;5093120;28;20058;-79
2023/08/18 01:57:25;;;;;;;15.18;9.85;;;;;;;;;;5088660;28;20392;-79
2023/08/18 01:59:50;;;;;;;18.63;10.10;;;;;;;;;;5089375;28;20016;-80
2023/08/18 02:02:15;;;;;;;14.90;10.02;;;;;;;;;;5089824;28;20035;-80
2023/08/18 02:04:41;;;;;;;15.00;10.00;;;;;;;;;;5088903;28;20110;-80
2023/08/18 02:07:06;;;;;;;15.73;10.00;;;;;;;;;;5088473;28;20115;-79
2023/08/18 02:09:32;;;;;;;17.77;10.02;;;;;;;;;;5090865;28;20495;-80
2023/08/18 02:11:57;;;;;;;14.98;9.98;;;;;;;;;;5088861;28;20035;-80
2023/08/18 02:14:22;;;;;;;15.98;9.80;;;;;;;;;;5089300;28;20107;-80
2023/08/18 02:16:48;;;;;;;15.68;9.27;;;;;;;;;;5097586;28;20103;-80
2023/08/18 02:19:13;;;;;;;17.63;10.18;;;;;;;;;;5089193;28;20537;-79
2023/08/18 02:21:39;;;;;;;17.13;9.98;;;;;;;;;;5089082;28;20495;-79
2023/08/18 02:24:04;;;;;;;14.68;10.00;;;;;;;;;;5088749;28;20031;-79
2023/08/18 02:26:30;;;;;;;17.90;10.40;;;;;;;;;;5087985;28;20032;-80
2023/08/18 02:28:55;;;;;;;18.45;9.95;;;;;;;;;;5087194;28;20059;-79
2023/08/18 02:31:20;;;;;;;16.63;10.18;;;;;;;;;;5088868;28;20028;-80
2023/08/18 02:33:46;;;;;;;16.98;10.95;;;;;;;;;;5088275;28;20377;-79
2023/08/18 02:36:12;;;;;;;14.60;9.93;;;;;;;;;;5088575;28;20066;-79
2023/08/18 02:38:38;;;;;;;16.27;10.30;;;;;;;;;;5088238;28;20020;-79
2023/08/18 02:41:03;;;;;;;16.35;10.15;;;;;;;;;;5089563;28;20035;-79
2023/08/18 02:43:28;;;;;;;16.10;9.82;;;;;;;;;;5087764;28;20098;-79
2023/08/18 02:46:02;;;;;;;18.13;10.23;;;;;;;;;;5088706;28;20051;-79
2023/08/18 02:48:29;;;;;;;17.60;9.90;;;;;;;;;;5085756;28;20032;-79
2023/08/18 02:51:04;;;;;;;14.20;10.15;;;;;;;;;;5082875;28;20040;-80
2023/08/18 02:53:30;;;;;;;15.18;10.07;;;;;;;;;;5088058;28;20115;-79
2023/08/18 02:55:56;;;;;;;15.07;10.57;;;;;;;;;;5090415;28;20032;-79
2023/08/18 02:58:24;;;;;;;14.70;10.57;;;;;;;;;;5092945;28;20519;-79
2023/08/18 03:00:50;;;;;;;16.77;10.52;;;;;;;;;;5088324;28;20020;-79
2023/08/18 03:03:15;;;;;;;17.25;10.90;;;;;;;;;;5088248;28;20051;-79
2023/08/18 03:05:40;;;;;;;15.55;10.32;;;;;;;;;;5087769;28;20032;-79
2023/08/18 03:08:06;;;;;;;15.15;10.48;;;;;;;;;;5069237;28;20032;-79
2023/08/18 03:10:31;;;;;;;15.75;10.18;;;;;;;;;;5088300;28;20105;-79
2023/08/18 03:12:57;;;;;;;16.27;10.63;;;;;;;;;;5088335;28;20028;-79
2023/08/18 03:15:22;;;;;;;17.42;10.38;;;;;;;;;;5088323;28;20105;-79
2023/08/18 03:17:49;;;;;;;18.23;11.27;;;;;;;;;;5087599;28;20367;-79
2023/08/18 03:20:14;;;;;;;16.15;10.68;;;;;;;;;;5071761;28;20441;-79
2023/08/18 03:22:39;;;;;;;14.52;10.20;;;;;;;;;;5092130;28;20023;-80
2023/08/18 03:25:05;;;;;;;18.52;11.23;;;;;;;;;;5092213;28;20028;-79
2023/08/18 03:27:31;;;;;;;17.95;12.00;;;;;;;;;;5092088;28;20415;-79
2023/08/18 03:29:56;;;;;;;21.48;11.68;;;;;;;;;;5095885;28;20020;-80
2023/08/18 03:32:24;;;;;;;22.27;11.57;;;;;;;;;;5092387;28;20386;-80
2023/08/18 03:34:49;;;;;;;18.60;12.20;;;;;;;;;;5092327;28;20039;-79
2023/08/18 03:37:15;;;;;;;17.50;11.95;;;;;;;;;;5090914;28;20028;-79
2023/08/18 03:39:43;;;;;;;20.25;12.00;;;;;;;;;;5094425;28;20062;-79
2023/08/18 03:42:08;;;;;;;23.20;12.60;;;;;;;;;;5086090;28;20089;-79
2023/08/18 03:44:34;;;;;;;20.95;11.88;;;;;;;;;;5096433;28;20044;-79
2023/08/18 03:46:59;;;;;;;18.33;11.68;;;;;;;;;;5091380;28;20036;-79
2023/08/18 03:49:26;;;;;;;18.38;12.10;;;;;;;;;;5091973;28;20480;-79
2023/08/18 03:51:51;;;;;;;16.48;11.45;;;;;;;;;;5091415;28;20049;-79
2023/08/18 03:54:16;;;;;;;16.50;10.48;;;;;;;;;;5074152;28;20399;-79
2023/08/18 03:56:42;;;;;;;17.25;10.98;;;;;;;;;;5091638;28;20036;-80
2023/08/18 03:59:07;;;;;;;15.82;11.02;;;;;;;;;;5091346;28;20043;-80
2023/08/18 04:01:32;;;;;;;18.77;10.85;;;;;;;;;;5091436;28;20032;-80
2023/08/18 04:03:59;;;;;;;16.42;11.40;;;;;;;;;;5090130;28;20028;-79
2023/08/18 04:06:24;;;;;;;16.15;10.73;;;;;;;;;;5091071;28;20655;-79
2023/08/18 04:09:13;;;;;;;17.63;11.60;;;;;;;;;;5090925;28;20103;-80
2023/08/18 04:11:39;;;;;;;17.48;11.73;;;;;;;;;;5090902;28;20071;-79
2023/08/18 04:14:05;;;;;;;19.48;12.35;;;;;;;;;;5091699;28;20047;-79
2023/08/18 04:16:34;;;;;;;18.10;11.27;;;;;;;;;;5095583;28;20529;-79
2023/08/18 04:19:00;;;;;;;16.65;11.02;;;;;;;;;;5090270;28;20040;-79
2023/08/18 04:21:26;;;;;;;16.60;10.93;;;;;;;;;;5090606;28;20012;-79
2023/08/18 04:23:52;;;;;;;16.67;10.93;;;;;;;;;;5095684;28;20432;-79
2023/08/18 04:26:17;;;;;;;16.20;11.55;;;;;;;;;;5090905;28;20526;-79
2023/08/18 04:28:43;;;;;;;18.92;11.95;;;;;;;;;;5090798;28;20093;-79
2023/08/18 04:31:08;;;;;;;17.75;11.20;;;;;;;;;;5090549;28;20424;-80
2023/08/18 04:33:33;;;;;;;22.48;12.55;;;;;;;;;;5091605;28;20032;-80
2023/08/18 04:35:59;;;;;;;20.42;11.75;;;;;;;;;;5090494;28;20028;-80
2023/08/18 04:38:24;;;;;;;18.13;11.48;;;;;;;;;;5089919;28;20036;-79
2023/08/18 04:40:59;;;;;;;17.95;11.23;;;;;;;;;;5091173;28;20039;-80
2023/08/18 04:43:26;;;;;;;25.38;12.82;;;;;;;;;;5091237;28;20035;-80
2023/08/18 04:45:52;;;;;;;22.17;12.82;;;;;;;;;;5072011;28;20056;-80
2023/08/18 04:48:19;;;;;;;21.30;12.50;;;;;;;;;;5091574;28;20040;-79
2023/08/18 04:50:44;;;;;;;22.63;12.27;;;;;;;;;;5091982;28;20023;-80
2023/08/18 04:53:10;;;;;;;18.70;12.02;;;;;;;;;;5090124;28;20040;-79
2023/08/18 04:55:35;;;;;;;21.02;11.73;;;;;;;;;;5090706;28;20036;-79
2023/08/18 04:58:01;;;;;;;20.70;12.15;;;;;;;;;;5090240;28;20051;-79
2023/08/18 05:00:26;;;;;;;19.80;11.90;;;;;;;;;;5097672;28;20598;-79
2023/08/18 05:02:52;;;;;;;21.48;12.35;;;;;;;;;;5090719;28;20023;-79
2023/08/18 05:05:18;;;;;;;19.65;13.15;;;;;;;;;;5090577;28;20055;-80
2023/08/18 05:07:43;;;;;;;20.70;12.45;;;;;;;;;;5090191;28;20040;-80
2023/08/18 05:10:09;;;;;;;18.55;11.55;;;;;;;;;;5089563;28;20035;-79
2023/08/18 05:12:34;;;;;;;20.08;12.60;;;;;;;;;;5088990;28;20035;-80
2023/08/18 05:15:00;;;;;;;23.17;13.43;;;;;;;;;;5090143;28;20112;-80
2023/08/18 05:17:25;;;;;;;23.27;12.60;;;;;;;;;;5089620;28;20479;-80
2023/08/18 05:19:50;;;;;;;26.02;13.40;;;;;;;;;;5089713;28;20516;-79
2023/08/18 05:22:16;;;;;;;26.90;14.60;;;;;;;;;;5089435;28;20541;-79
2023/08/18 05:24:41;;;;;;;23.58;13.77;;;;;;;;;;5096418;28;20028;-80
2023/08/18 05:27:06;;;;;;;24.92;13.48;;;;;;;;;;5090002;28;20027;-79
2023/08/18 05:29:32;;;;;;;24.67;14.20;;;;;;;;;;5089658;28;20103;-80
2023/08/18 05:31:57;;;;;;;28.35;14.55;;;;;;;;;;5088966;28;20032;-80
2023/08/18 05:34:24;;;;;;;27.20;14.63;;;;;;;;;;5093201;28;20387;-80
2023/08/18 05:36:51;;;;;;;32.30;14.23;;;;;;;;;;5089161;28;20702;-81
2023/08/18 05:39:16;;;;;;;28.40;14.43;;;;;;;;;;5070691;28;20482;-80
2023/08/18 05:41:43;;;;;;;28.90;14.30;;;;;;;;;;5088809;28;20116;-79
2023/08/18 05:44:09;;;;;;;24.20;14.00;;;;;;;;;;5089817;28;20089;-79
2023/08/18 05:46:34;;;;;;;28.13;14.20;;;;;;;;;;5088924;28;20496;-79
2023/08/18 05:49:00;;;;;;;23.23;14.02;;;;;;;;;;5089478;28;20028;-80
2023/08/18 05:51:25;;;;;;;29.00;13.63;;;;;;;;;;5089341;28;20119;-79
2023/08/18 05:53:50;;;;;;;24.75;14.02;;;;;;;;;;5089240;28;20078;-80
2023/08/18 05:56:19;;;;;;;24.98;13.63;;;;;;;;;;5088561;28;20112;-79
2023/08/18 05:58:44;;;;;;;33.25;13.63;;;;;;;;;;5088532;28;20099;-79
2023/08/18 06:01:10;;;;;;;34.25;13.13;;;;;;;;;;5089176;28;20118;-79
2023/08/18 06:03:35;;;;;;;31.50;13.45;;;;;;;;;;5088834;28;20032;-80
2023/08/18 06:06:01;;;;;;;25.20;12.93;;;;;;;;;;5089560;28;20058;-79
2023/08/18 06:08:26;;;;;;;24.45;13.32;;;;;;;;;;5088657;28;20031;-79
2023/08/18 06:10:52;;;;;;;27.60;13.20;;;;;;;;;;5090944;28;20031;-79
2023/08/18 06:13:18;;;;;;;19.65;12.52;;;;;;;;;;5088506;28;20476;-80
2023/08/18 06:15:43;;;;;;;24.77;12.55;;;;;;;;;;5088742;28;20030;-80
2023/08/18 06:18:09;;;;;;;22.02;12.20;;;;;;;;;;5088402;28;20053;-80
2023/08/18 06:20:35;;;;;;;27.85;11.93;;;;;;;;;;5088732;28;20028;-80
2023/08/18 06:23:00;;;;;;;21.85;12.27;;;;;;;;;;5080259;28;20103;-79
2023/08/18 06:25:26;;;;;;;20.98;12.63;;;;;;;;;;5088546;28;20115;-80
2023/08/18 06:27:52;;;;;;;28.33;12.90;;;;;;;;;;5088076;28;20116;-80
2023/08/18 06:30:18;;;;;;;28.30;12.45;;;;;;;;;;5088260;28;20578;-79
2023/08/18 06:32:44;;;;;;;20.13;11.93;;;;;;;;;;5088203;28;20020;-80
2023/08/18 06:35:10;;;;;;;19.10;12.10;;;;;;;;;;5087893;28;20040;-80
2023/08/18 06:37:35;;;;;;;19.77;11.98;;;;;;;;;;5087593;28;20028;-79
2023/08/18 06:40:00;;;;;;;20.02;11.77;;;;;;;;;;5088665;28;20028;-80
2023/08/18 06:42:26;;;;;;;17.38;10.43;;;;;;;;;;5087890;28;20032;-79
2023/08/18 06:44:51;;;;;;;22.55;11.15;;;;;;;;;;5089052;28;20036;-80
2023/08/18 06:47:16;;;;;;;23.15;10.95;;;;;;;;;;5088101;28;20424;-79
2023/08/18 06:49:42;;;;;;;19.02;11.25;;;;;;;;;;5088417;28;20058;-80
2023/08/18 06:52:07;;;;;;;14.38;9.98;;;;;;;;;;5089400;28;20025;-80
2023/08/18 06:54:33;;;;;;;17.05;9.77;;;;;;;;;;5091720;28;20113;-81
2023/08/18 06:56:58;;;;;;;18.88;10.07;;;;;;;;;;5092077;28;20039;-80
2023/08/18 06:59:24;;;;;;;14.45;10.02;;;;;;;;;;5092697;28;20027;-81
2023/08/18 07:01:50;;;;;;;15.07;10.65;;;;;;;;;;5092046;28;20532;-83
2023/08/18 07:04:16;;;;;;;17.85;10.05;;;;;;;;;;5092072;28;20035;-79
2023/08/18 07:06:44;;;;;;;13.55;9.75;;;;;;;;;;5092300;28;20444;-80
2023/08/18 07:09:09;;;;;;;16.33;10.32;;;;;;;;;;5073794;28;20031;-80
2023/08/18 07:11:35;;;;;;;15.52;9.93;;;;;;;;;;5091897;28;20032;-86
2023/08/18 07:14:01;;;;;;;16.55;10.15;;;;;;;;;;5092063;28;20123;-81
2023/08/18 07:16:26;;;;;;;17.45;10.63;;;;;;;;;;5092075;28;20035;-85
2023/08/18 07:18:51;;;;;;;15.63;10.75;;;;;;;;;;5092329;28;20028;-85
2023/08/18 07:21:16;;;;;;;16.05;10.38;;;;;;;;;;5091841;28;20040;-85
2023/08/18 07:23:42;;;;;;;16.13;10.27;;;;;;;;;;5092554;28;20024;-81
2023/08/18 07:26:07;;;;;;;15.75;10.32;;;;;;;;;;5095049;28;20038;-80
2023/08/18 07:28:33;;;;;;;14.45;9.98;;;;;;;;;;5086335;28;20031;-80
2023/08/18 07:31:05;;;;;;;16.50;9.73;;;;;;;;;;5091424;28;20037;-80
2023/08/18 07:33:31;;;;;;;12.43;9.65;;;;;;;;;;5093375;28;20020;-81
2023/08/18 07:35:57;;;;;;;15.07;10.02;;;;;;;;;;5092472;28;20178;-81
2023/08/18 07:38:23;;;;;;;16.20;9.70;;;;;;;;;;5091244;28;20020;-80
2023/08/18 07:40:48;;;;;;;15.45;9.48;;;;;;;;;;5092084;28;20093;-83
2023/08/18 07:43:14;;;;;;;15.25;9.07;;;;;;;;;;5091667;28;20569;-80
2023/08/18 07:45:39;;;;;;;16.00;9.27;;;;;;;;;;5074525;28;20418;-79
2023/08/18 07:48:05;;;;;;;16.27;9.35;;;;;;;;;;5091424;28;20040;-79
2023/08/18 07:50:31;;;;;;;14.38;9.05;;;;;;;;;;5073215;28;20089;-78
2023/08/18 07:52:56;;;;;;;12.15;8.73;;;;;;;;;;5091163;28;20028;-80
2023/08/18 07:55:22;;;;;;;13.68;8.88;;;;;;;;;;5091664;28;20024;-81
2023/08/18 07:57:47;;;;;;;12.68;8.68;;;;;;;;;;5091065;28;20123;-78
2023/08/18 08:00:17;;;;;;;14.73;8.82;;;;;;;;;;5090529;28;20116;-78
2023/08/18 08:02:43;;;;;;;14.43;9.00;;;;;;;;;;5090668;28;20024;-79
2023/08/18 08:05:10;;;;;;;13.50;8.38;;;;;;;;;;5090754;28;20032;-78
2023/08/18 08:07:36;;;;;;;10.52;8.25;;;;;;;;;;5090985;28;20024;-81
2023/08/18 08:10:03;;;;;;;12.55;8.70;;;;;;;;;;5074277;28;20054;-79
2023/08/18 08:12:34;;;;;;;15.63;8.43;;;;;;;;;;5093432;28;20450;-79
2023/08/18 08:15:01;;;;;;;13.93;8.40;;;;;;;;;;5073178;28;20089;-79
2023/08/18 08:17:29;;;;;;;10.75;8.00;;;;;;;;;;5090756;28;20039;-78
2023/08/18 08:19:56;;;;;;;13.15;8.38;;;;;;;;;;5090716;28;20035;-78
2023/08/18 08:22:22;;;;;;;11.18;8.30;;;;;;;;;;5081614;28;20444;-80
2023/08/18 08:24:48;;;;;;;12.55;8.05;;;;;;;;;;5082230;28;20027;-78
2023/08/18 08:27:15;;;;;;;10.70;7.82;;;;;;;;;;5083742;28;20038;-79
2023/08/18 08:29:41;;;;;;;10.80;7.80;;;;;;;;;;5090699;28;20107;-79
2023/08/18 08:32:06;;;;;;;11.32;7.32;;;;;;;;;;5090749;28;20178;-78
2023/08/18 08:34:31;;;;;;;12.05;7.90;;;;;;;;;;5091154;28;20052;-77
2023/08/18 08:36:57;;;;;;;10.38;7.00;;;;;;;;;;5090819;28;20031;-79
2023/08/18 08:39:22;;;;;;;10.55;7.22;;;;;;;;;;5096733;28;20219;-81
2023/08/18 08:41:48;;;;;;;9.68;6.95;;;;;;;;;;5105117;28;20385;-79
2023/08/18 08:44:13;;;;;;;11.65;7.30;;;;;;;;;;5100992;28;20047;-78
2023/08/18 08:46:40;;;;;;;10.23;6.88;;;;;;;;;;5096510;28;20492;-78
2023/08/18 08:49:07;;;;;;;11.52;7.05;;;;;;;;;;5098589;28;20060;-78
2023/08/18 08:51:37;;;;;;;10.32;6.75;;;;;;;;;;5098326;28;20057;-78
2023/08/18 08:54:06;;;;;;;10.00;6.95;;;;;;;;;;5092402;28;20396;-78
2023/08/18 08:56:34;;;;;;;10.18;6.70;;;;;;;;;;5077815;28;20028;-78
2023/08/18 08:59:00;;;;;;;8.68;6.35;;;;;;;;;;5092996;28;20047;-77
2023/08/18 09:01:26;;;;;;;10.18;6.20;;;;;;;;;;5090934;28;20086;-78
2023/08/18 09:03:52;;;;;;;11.20;6.20;;;;;;;;;;5090547;28;20569;-78
2023/08/18 09:06:17;;;;;;;9.18;6.43;;;;;;;;;;5094050;28;20059;-77
2023/08/18 09:08:43;;;;;;;11.00;6.05;;;;;;;;;;5090672;28;20585;-78
2023/08/18 09:11:08;;;;;;;10.32;6.25;;;;;;;;;;5095126;28;20054;-78
2023/08/18 09:13:35;;;;;;;9.95;5.88;;;;;;;;;;5095035;28;20039;-78
2023/08/18 09:16:03;;;;;;;10.90;5.97;;;;;;;;;;5089371;28;20024;-78
2023/08/18 09:18:32;;;;;;;8.80;5.90;;;;;;;;;;5095410;28;20080;-77
2023/08/18 09:20:57;;;;;;;10.60;5.97;;;;;;;;;;5104197;28;20020;-78
2023/08/18 09:23:25;;;;;;;10.05;6.13;;;;;;;;;;5100683;28;20024;-78
2023/08/18 09:25:51;;;;;;;9.13;6.20;;;;;;;;;;5096648;28;20020;-78
2023/08/18 09:28:17;;;;;;;10.00;6.18;;;;;;;;;;5087218;28;20115;-78
2023/08/18 09:30:43;;;;;;;10.45;5.80;;;;;;;;;;5096929;28;20016;-81
2023/08/18 09:33:08;;;;;;;8.80;5.60;;;;;;;;;;5099246;28;20055;-79
2023/08/18 09:35:34;;;;;;;10.13;5.55;;;;;;;;;;5099013;28;20020;-79
2023/08/18 09:38:01;;;;;;;8.90;5.72;;;;;;;;;;5098213;28;20032;-80
2023/08/18 09:40:27;;;;;;;9.30;5.40;;;;;;;;;;5096017;28;20071;-79
2023/08/18 09:42:53;;;;;;;8.80;5.30;;;;;;;;;;5077321;28;20445;-79
2023/08/18 09:45:28;;;;;;;9.93;5.25;;;;;;;;;;5100792;28;20028;-80
2023/08/18 09:47:55;;;;;;;7.57;5.28;;;;;;;;;;5101604;28;20059;-79
2023/08/18 09:50:24;;;;;;;6.82;4.95;;;;;;;;;;5101552;28;20028;-80
2023/08/18 09:52:54;;;;;;;9.90;5.30;;;;;;;;;;5101452;28;20027;-80
2023/08/18 09:55:31;;;;;;;6.93;5.10;;;;;;;;;;5101828;28;20024;-80
2023/08/18 09:58:26;;;;;;;9.57;5.57;;;;;;;;;;5100527;28;20036;-85
2023/08/18 10:00:56;;;;;;;9.07;5.30;;;;;;;;;;5100212;28;20081;-80
2023/08/18 10:03:26;;;;;;;8.43;5.38;;;;;;;;;;5081635;28;20035;-84
2023/08/18 10:05:52;;;;;;;9.38;5.15;;;;;;;;;;5081745;28;20020;-82
2023/08/18 10:08:18;;;;;;;8.68;5.10;;;;;;;;;;5099173;28;20106;-82
2023/08/18 10:10:45;;;;;;;8.75;5.03;;;;;;;;;;5082267;28;20020;-82
2023/08/18 10:13:13;;;;;;;9.60;5.18;;;;;;;;;;5100251;28;20032;-82
2023/08/18 10:15:38;;;;;;;7.53;4.97;;;;;;;;;;5100319;28;20024;-82
2023/08/18 10:18:09;;;;;;;9.85;5.40;;;;;;;;;;5080530;28;20035;-81
2023/08/18 10:20:35;;;;;;;7.57;5.07;;;;;;;;;;5100943;28;20016;-83
2023/08/18 10:23:04;;;;;;;7.60;5.10;;;;;;;;;;5099760;28;20050;-82
2023/08/18 10:44:31;;;;;;;7.03;4.28;;;;;;;;;;5508737;23;20634;-82
2023/08/18 10:46:57;;;;;;;6.80;4.15;;;;;;;;;;5035238;28;20041;-82
2023/08/18 10:49:36;;;;;;;5.85;4.18;;;;;;;;;;5042139;28;20052;-82
2023/08/18 10:52:19;;;;;;;8.27;4.53;;;;;;;;;;5037479;28;20096;-82
2023/08/18 10:54:53;;;;;;;7.03;4.50;;;;;;;;;;5048259;28;20021;-82
2023/08/18 10:57:34;;;;;;;;;;;;;;;;;;;;;
2023/08/18 11:00:10;;;;;;;7.18;4.40;;;;;;;;;;5073404;28;20044;-82
2023/08/18 11:05:33;;;;;;;8.23;4.70;;;;;;;;;;5057865;28;20087;-81
2023/08/18 11:11:47;;;;;;;7.63;4.15;;;;;;;;;;4901640;29;20070;-82
2023/08/18 11:14:13;;;;;;;7.35;4.30;;;;;;;;;;4969128;28;20034;-82
2023/08/18 11:16:38;;;;;;;6.97;4.70;;;;;;;;;;4958074;28;20118;-82
2023/08/18 11:19:09;;;;;;;7.88;4.30;;;;;;;;;;4964028;28;20231;-82
2023/08/18 11:21:35;;;;;;;9.25;4.80;;;;;;;;;;4954234;28;20062;-82
2023/08/18 11:24:01;;;;;;;6.90;4.50;;;;;;;;;;4956562;28;20027;-82
2023/08/18 11:26:36;;;;;;;9.23;4.70;;;;;;;;;;5028943;28;20202;-84
2023/08/18 11:29:10;;;;;;;8.10;4.60;;;;;;;;;;5031624;28;20083;-82
2023/08/18 11:32:00;;;;;;;8.48;4.95;;;;;;;;;;5037809;28;20032;-82
2023/08/18 11:34:59;;;;;;;11.40;5.07;;;;;;;;;;5026278;28;20025;-82
2023/08/18 11:37:52;;;;;;;7.28;4.45;;;;;;;;;;5025377;28;20040;-83
2023/08/18 11:40:56;;;;;;;11.15;4.85;;;;;;;;;;5033901;28;20254;-82
2023/08/18 11:43:23;;;;;;;10.00;5.03;;;;;;;;;;5027794;28;20052;-82
2023/08/18 11:45:48;;;;;;;10.55;5.10;;;;;;;;;;5038235;28;20021;-82
2023/08/18 11:48:28;;;;;;;9.52;5.38;;;;;;;;;;5043356;28;20040;-82
2023/08/18 11:50:59;;;;;;;13.95;5.13;;;;;;;;;;5038795;28;20033;-82
2023/08/18 11:54:13;;;;;;;8.15;4.80;;;;;;;;;;5042508;28;20233;-83
2023/08/18 12:02:33;;;;;;;9.93;5.00;;;;;;;;;;5057646;28;20321;-80
2023/08/18 12:04:59;;;;;;;9.57;5.22;;;;;;;;;;5044766;28;20065;-79
2023/08/18 12:07:24;;;;;;;9.13;4.65;;;;;;;;;;5033961;28;20056;-79
2023/08/18 12:09:49;;;;;;;11.80;5.03;;;;;;;;;;5038682;28;20025;-80
2023/08/18 12:15:58;;;;;;;11.30;5.05;;;;;;;;;;5047174;28;20043;-83
2023/08/18 12:18:23;;;;;;;9.13;4.75;;;;;;;;;;5036264;28;20119;-82
2023/08/18 12:20:48;;;;;;;11.38;5.03;;;;;;;;;;5039809;28;20043;-84
2023/08/18 12:23:26;;;;;;;8.25;4.80;;;;;;;;;;5031108;28;20264;-84
2023/08/18 12:26:03;;;;;;;8.68;4.97;;;;;;;;;;5035758;28;20029;-85
2023/08/18 12:28:35;;;;;;;9.85;4.82;;;;;;;;;;5034988;28;20037;-82
2023/08/18 12:31:03;;;;;;;10.13;4.88;;;;;;;;;;5034261;28;20048;-83
2023/08/18 12:33:29;;;;;;;9.45;4.93;;;;;;;;;;5049534;28;20033;-79
2023/08/18 12:35:57;;;;;;;8.93;4.80;;;;;;;;;;5042351;28;20047;-81
2023/08/18 12:38:23;;;;;;;8.02;4.90;;;;;;;;;;5024960;28;20029;-82
2023/08/18 12:40:51;;;;;;;8.65;4.90;;;;;;;;;;5024636;28;20225;-82
2023/08/18 12:43:19;;;;;;;9.13;5.07;;;;;;;;;;5024104;28;20055;-82
2023/08/18 12:45:44;;;;;;;8.75;4.95;;;;;;;;;;5024229;28;20033;-81
2023/08/18 12:48:19;;;;;;;8.48;4.68;;;;;;;;;;5024501;28;20037;-83
2023/08/18 12:50:44;;;;;;;;;;;;;;;;;;5040710;28;20092;-80
2023/08/18 12:53:10;;;;;;;7.45;4.65;;;;;;;;;;5024515;28;19924;-81
2023/08/18 12:55:52;;;;;;;8.07;4.85;;;;;;;;;;5034368;28;20041;-81
2023/08/18 12:58:38;;;;;;;9.95;4.88;;;;;;;;;;5024045;28;20032;-83
2023/08/18 13:01:38;;;;;;;10.85;5.15;;;;;;;;;;5230658;23;20021;-82
2023/08/18 13:04:38;;;;;;;8.43;4.72;;;;;;;;;;5023569;28;20037;-86
2023/08/18 13:09:46;;;;;;;8.98;5.10;;;;;;;;;;5625707;23;20041;-83
2023/08/18 13:15:40;;;;;;;9.13;5.20;;;;;;;;;;4942329;29;20095;-85
2023/08/18 13:28:16;;;;;;;9.20;5.20;;;;;;;;;;5175723;23;20057;-81
2023/08/18 13:30:42;;;;;;;11.23;5.10;;;;;;;;;;5035974;28;20048;-81
2023/08/18 13:33:07;;;;;;;7.35;4.90;;;;;;;;;;5039207;28;20036;-81
2023/08/18 13:35:33;;;;;;;10.98;5.13;;;;;;;;;;5024412;28;20041;-79
2023/08/18 13:37:58;;;;;;;11.40;4.97;;;;;;;;;;5030015;28;20382;-81
2023/08/18 13:40:24;;;;;;;6.72;4.88;;;;;;;;;;5027292;28;20035;-80
2023/08/18 13:42:49;;;;;;;9.15;4.90;;;;;;;;;;5032322;28;20305;-81
2023/08/18 13:45:14;;;;;;;9.40;4.93;;;;;;;;;;5038850;28;20037;-81
2023/08/18 13:47:40;;;;;;;7.32;4.97;;;;;;;;;;5037322;28;20061;-82
2023/08/18 13:50:06;;;;;;;10.13;5.40;;;;;;;;;;5029885;28;20504;-80
2023/08/18 13:52:31;;;;;;;9.05;5.10;;;;;;;;;;5031408;28;20394;-80
2023/08/18 13:54:57;;;;;;;9.85;4.93;;;;;;;;;;5035066;28;20036;-79
2023/08/18 13:57:22;;;;;;;10.73;4.95;;;;;;;;;;5036479;28;20025;-81
2023/08/18 13:59:48;;;;;;;7.68;5.13;;;;;;;;;;5032202;28;20108;-81
2023/08/18 14:02:13;;;;;;;9.80;5.35;;;;;;;;;;5029811;28;20033;-81
2023/08/18 14:04:38;;;;;;;9.75;5.07;;;;;;;;;;5029254;28;20032;-80
2023/08/18 14:07:04;;;;;;;6.97;4.82;;;;;;;;;;5033938;28;20044;-81
2023/08/18 14:09:31;;;;;;;7.65;4.90;;;;;;;;;;5028641;28;20116;-81
2023/08/18 14:11:59;;;;;;;10.70;5.30;;;;;;;;;;5022788;28;20026;-81
2023/08/18 14:14:24;;;;;;;9.05;5.20;;;;;;;;;;5028456;28;20029;-81
2023/08/18 14:16:50;;;;;;;10.35;5.00;;;;;;;;;;5028263;28;20085;-81
2023/08/18 14:19:16;;;;;;;8.95;5.10;;;;;;;;;;5020186;28;20116;-81
2023/08/18 14:21:44;;;;;;;11.20;5.07;;;;;;;;;;5027507;28;20025;-80
2023/08/18 14:24:11;;;;;;;9.48;5.05;;;;;;;;;;5024483;28;20371;-81
2023/08/18 14:26:36;;;;;;;12.05;5.07;;;;;;;;;;5029625;28;20049;-82
2023/08/18 14:29:04;;;;;;;12.73;5.18;;;;;;;;;;5021803;28;20049;-81
2023/08/18 14:31:30;;;;;;;9.07;5.35;;;;;;;;;;5029345;28;20032;-81
2023/08/18 14:34:04;;;;;;;9.20;5.30;;;;;;;;;;5028261;28;20025;-82
2023/08/18 14:36:29;;;;;;;8.15;5.00;;;;;;;;;;5027932;28;20040;-81
2023/08/18 14:39:08;;;;;;;8.63;4.72;;;;;;;;;;5027868;28;20679;-82
2023/08/18 14:41:39;;;;;;;9.23;4.93;;;;;;;;;;5027752;28;20088;-82
2023/08/18 14:44:05;;;;;;;6.55;4.70;;;;;;;;;;5027993;28;20124;-82
2023/08/18 14:46:39;;;;;;;8.23;4.75;;;;;;;;;;5028027;28;20179;-81
2023/08/18 14:53:01;;;;;;;7.95;4.80;;;;;;;;;;4962589;28;20046;-82
2023/08/18 14:55:30;;;;;;;10.90;5.00;;;;;;;;;;4943647;28;20038;-80
2023/08/18 14:57:56;;;;;;;7.43;5.00;;;;;;;;;;4967311;28;20427;-81
2023/08/18 15:00:22;;;;;;;10.25;5.15;;;;;;;;;;4967548;28;20631;-81
2023/08/18 15:02:47;;;;;;;6.75;4.70;;;;;;;;;;4961849;28;20069;-80
2023/08/18 15:05:13;;;;;;;7.65;4.47;;;;;;;;;;5027527;28;20105;-80
2023/08/18 15:07:38;;;;;;;9.27;5.00;;;;;;;;;;5036903;28;20588;-81
2023/08/18 15:10:12;;;;;;;8.93;4.68;;;;;;;;;;5038992;28;20244;-80
2023/08/18 15:12:38;;;;;;;8.95;4.90;;;;;;;;;;5038780;28;20021;-81
2023/08/18 15:15:07;;;;;;;8.90;4.82;;;;;;;;;;5041262;28;20033;-80
2023/08/18 15:17:45;;;;;;;8.77;4.57;;;;;;;;;;5039809;28;20056;-80
2023/08/18 15:20:11;;;;;;;8.35;4.93;;;;;;;;;;5036042;28;20316;-80
2023/08/18 15:23:04;;;;;;;7.93;4.78;;;;;;;;;;5040500;28;20060;-82
2023/08/18 15:25:36;;;;;;;11.73;5.03;;;;;;;;;;5026277;28;20072;-81
2023/08/18 15:28:05;;;;;;;11.55;4.80;;;;;;;;;;5030125;28;20049;-82
2023/08/18 15:30:44;;;;;;;8.07;4.60;;;;;;;;;;5027309;28;20041;-81